Westwood Lake, Colorado
Current Conditions -  °F | °C
As of 2:58 PM on Tuesday 21 Oct 2014 (Local Time) from KAFF Reporting Station
Few Clouds Few Clouds  
Wind Chill: 66°   Ceiling: Unl
Heat Index: 66°   Visibility: 10mi
Dew Point: 35°   Wind: 13mph
Humidity: 32%   Direction: 160°SSE
Pressure: 30.03"   Gusts: NA
Location:  39.0237°N, 105.099°W
Report Text: KAFF 212058Z AUTO 16011KT 10SM FEW110 19/02 A3003 RMK AO2 SLP122 T01890019 57016
Loading
Personal Weather Stations






























Interactive Weather Map
Tropical Storm Tracking
New forecast layout! Learn more

10-Day Weather Forecast

Advertisements
Track Severe Weather on mobile